Time;durP1;ratioP1;P1;durP2;ratioP2;P2;SDS_P1;SDS_P2;PMS_P1;PMS_P2;Temp;Humidity;BMP_temperature;BMP_pressure;BME280_temperature;BME280_humidity;BME280_pressure;Samples;Min_cycle;Max_cycle;Signal;HPM_P1;HPM_P2
2024/03/31 00:01:36;;;;;;;59.47;26.25;;;12.30;99.90;;;;;;5068988;28;20036;-74
2024/03/31 00:04:02;;;;;;;58.53;26.45;;;12.30;99.90;;;;;;5068917;28;20706;-74
2024/03/31 00:06:30;;;;;;;57.92;25.67;;;12.30;99.90;;;;;;5069244;28;20032;-75
2024/03/31 00:08:58;;;;;;;62.58;27.67;;;12.30;99.90;;;;;;5070471;28;20029;-75
2024/03/31 00:11:26;;;;;;;53.28;24.83;;;12.30;99.90;;;;;;5069355;28;20027;-74
2024/03/31 00:13:51;;;;;;;55.72;25.38;;;12.20;99.90;;;;;;5068634;28;20521;-74
2024/03/31 00:16:20;;;;;;;57.30;26.58;;;12.20;99.90;;;;;;5068905;28;20119;-75
2024/03/31 00:18:46;;;;;;;75.20;27.65;;;12.20;99.90;;;;;;5068821;28;20031;-75
2024/03/31 00:21:12;;;;;;;77.50;28.42;;;12.20;99.90;;;;;;5068922;28;20028;-74
2024/03/31 00:23:40;;;;;;;62.72;28.05;;;12.10;99.90;;;;;;5068204;28;20029;-75
2024/03/31 00:26:06;;;;;;;56.33;26.63;;;12.10;99.90;;;;;;5070492;28;20024;-74
2024/03/31 00:28:35;;;;;;;70.25;27.92;;;12.10;99.90;;;;;;5068758;28;20051;-74
2024/03/31 00:31:03;;;;;;;59.00;28.17;;;12.10;99.90;;;;;;5060199;28;20055;-74
2024/03/31 00:33:29;;;;;;;62.55;26.95;;;12.10;99.90;;;;;;5068316;28;20027;-74
2024/03/31 00:35:58;;;;;;;67.53;27.13;;;12.10;99.90;;;;;;5069767;28;20033;-74
2024/03/31 00:38:24;;;;;;;82.57;30.52;;;12.10;99.90;;;;;;5069040;28;20020;-74
2024/03/31 00:40:51;;;;;;;78.05;30.98;;;12.10;99.90;;;;;;5068629;28;20024;-74
2024/03/31 00:43:19;;;;;;;63.65;27.08;;;12.10;99.90;;;;;;5069402;28;20099;-74
2024/03/31 00:45:45;;;;;;;64.13;27.45;;;12.10;99.90;;;;;;5068694;28;20028;-74
2024/03/31 00:48:11;;;;;;;82.75;30.65;;;12.10;99.90;;;;;;5070035;28;20394;-74
2024/03/31 00:50:37;;;;;;;66.93;28.88;;;12.00;99.90;;;;;;5069862;28;20021;-74
2024/03/31 00:53:07;;;;;;;62.08;27.10;;;12.00;99.90;;;;;;5068106;28;20016;-75
2024/03/31 00:55:32;;;;;;;60.85;27.08;;;12.00;99.90;;;;;;5069266;28;20506;-74
2024/03/31 00:57:58;;;;;;;60.03;27.60;;;12.00;99.90;;;;;;5067929;28;20021;-74
2024/03/31 01:00:25;;;;;;;63.40;27.98;;;12.00;99.90;;;;;;5068119;28;20021;-74
2024/03/31 01:02:50;;;;;;;70.13;27.55;;;12.00;99.90;;;;;;5067717;28;20021;-74
2024/03/31 01:05:16;;;;;;;60.25;26.30;;;12.00;99.90;;;;;;5069427;28;20023;-74
2024/03/31 01:07:42;;;;;;;72.15;27.60;;;12.00;99.90;;;;;;5069757;28;20048;-75
2024/03/31 01:10:10;;;;;;;65.70;28.65;;;12.00;99.90;;;;;;5068289;28;20028;-75
2024/03/31 01:12:36;;;;;;;64.55;27.75;;;11.90;99.90;;;;;;5067273;28;20023;-75
2024/03/31 01:15:02;;;;;;;61.83;29.67;;;11.90;99.90;;;;;;5067970;28;20021;-74
2024/03/31 01:17:29;;;;;;;65.18;28.55;;;11.90;99.90;;;;;;5069346;28;20021;-74
2024/03/31 01:19:54;;;;;;;61.85;29.00;;;11.90;99.90;;;;;;5067953;28;20021;-74
2024/03/31 01:22:21;;;;;;;62.67;27.38;;;11.80;99.90;;;;;;5067862;28;20029;-74
2024/03/31 01:24:47;;;;;;;59.05;27.63;;;11.80;99.90;;;;;;5067406;28;20024;-75
2024/03/31 01:27:13;;;;;;;62.53;27.45;;;11.80;99.90;;;;;;5068029;28;20070;-75
2024/03/31 01:29:38;;;;;;;82.78;30.77;;;11.80;99.90;;;;;;5068114;28;20031;-74
2024/03/31 01:32:04;;;;;;;69.53;27.52;;;11.80;99.90;;;;;;5060135;28;20016;-74
2024/03/31 01:34:31;;;;;;;67.85;27.10;;;11.80;99.90;;;;;;5068168;28;20017;-74
2024/03/31 01:37:01;;;;;;;61.75;27.75;;;11.70;99.90;;;;;;5069527;28;20021;-74
2024/03/31 01:39:26;;;;;;;58.60;26.77;;;11.70;99.90;;;;;;5069747;28;20027;-74
2024/03/31 01:41:52;;;;;;;64.97;27.48;;;11.70;99.90;;;;;;5068129;28;20271;-75
2024/03/31 01:44:18;;;;;;;56.72;25.85;;;11.70;99.90;;;;;;5071426;28;20025;-75
2024/03/31 01:46:44;;;;;;;50.47;24.23;;;11.70;99.90;;;;;;5071510;28;20024;-75
2024/03/31 01:49:20;;;;;;;51.67;24.38;;;11.70;99.90;;;;;;5071415;28;20044;-74
2024/03/31 01:51:46;;;;;;;53.13;24.40;;;11.70;99.90;;;;;;5070607;28;20013;-74
2024/03/31 01:54:11;;;;;;;68.72;25.48;;;11.60;99.90;;;;;;5064085;28;20470;-75
2024/03/31 01:56:37;;;;;;;52.75;24.35;;;11.60;99.90;;;;;;5072334;28;20021;-74
2024/03/31 01:59:06;;;;;;;60.67;28.88;;;11.60;99.90;;;;;;5071386;28;20020;-74
2024/03/31 02:01:32;;;;;;;56.17;25.63;;;11.60;99.90;;;;;;5072770;28;20516;-75
2024/03/31 02:03:58;;;;;;;79.18;31.75;;;11.60;99.90;;;;;;5071170;28;20028;-74
2024/03/31 02:06:24;;;;;;;65.53;29.20;;;11.60;99.90;;;;;;5071402;28;20360;-74
2024/03/31 02:08:52;;;;;;;52.53;25.90;;;11.50;99.90;;;;;;5071407;28;20052;-74
2024/03/31 02:11:18;;;;;;;77.57;34.22;;;11.50;99.90;;;;;;5057966;28;20025;-74
2024/03/31 02:13:51;;;;;;;71.65;30.75;;;11.50;99.90;;;;;;5067938;28;20074;-74
2024/03/31 02:16:23;;;;;;;53.90;27.60;;;11.50;99.90;;;;;;5071047;28;20466;-74
2024/03/31 02:18:48;;;;;;;71.53;30.83;;;11.50;99.90;;;;;;5070871;28;20459;-75
2024/03/31 02:21:14;;;;;;;74.20;29.17;;;11.50;99.90;;;;;;5064125;28;20025;-74
2024/03/31 02:23:40;;;;;;;52.90;27.05;;;11.40;99.90;;;;;;5071871;28;20017;-74
2024/03/31 02:26:07;;;;;;;51.45;25.85;;;11.40;99.90;;;;;;5072376;28;20481;-74
2024/03/31 02:28:36;;;;;;;57.50;28.50;;;11.40;99.90;;;;;;5070880;28;20043;-74
2024/03/31 02:31:02;;;;;;;51.28;26.70;;;11.30;99.90;;;;;;5063816;28;20021;-74
2024/03/31 02:33:28;;;;;;;58.55;28.27;;;11.30;99.90;;;;;;5070413;28;20024;-74
2024/03/31 02:35:54;;;;;;;75.97;33.90;;;11.30;99.90;;;;;;5070648;28;20117;-74
2024/03/31 02:38:20;;;;;;;58.05;28.00;;;11.30;99.90;;;;;;5070805;28;20036;-74
2024/03/31 02:40:45;;;;;;;57.25;27.63;;;11.30;99.90;;;;;;5070301;28;20024;-75
2024/03/31 02:43:12;;;;;;;71.82;29.63;;;11.30;99.90;;;;;;5070315;28;20031;-74
2024/03/31 02:45:37;;;;;;;60.60;29.67;;;11.30;99.90;;;;;;5070500;28;20122;-75
2024/03/31 02:48:06;;;;;;;58.38;28.05;;;11.30;99.90;;;;;;5070370;28;20032;-75
2024/03/31 02:50:32;;;;;;;70.90;30.10;;;11.30;99.90;;;;;;5070718;28;20454;-74
2024/03/31 02:52:58;;;;;;;67.63;28.05;;;11.30;99.90;;;;;;5070261;28;20020;-74
2024/03/31 02:55:26;;;;;;;55.30;26.80;;;11.20;99.90;;;;;;5068755;28;20017;-74
2024/03/31 02:57:55;;;;;;;53.10;26.35;;;11.20;99.90;;;;;;5071340;28;20037;-75
2024/03/31 03:00:23;;;;;;;57.30;26.65;;;11.20;99.90;;;;;;5070143;28;20020;-74
2024/03/31 03:02:50;;;;;;;61.92;28.30;;;11.20;99.90;;;;;;5069237;28;20024;-75
2024/03/31 03:05:16;;;;;;;58.40;27.45;;;11.20;99.90;;;;;;5069810;28;20389;-74
2024/03/31 03:07:42;;;;;;;63.90;27.50;;;11.20;99.90;;;;;;5069526;28;20039;-75
2024/03/31 03:10:08;;;;;;;60.58;26.77;;;11.20;99.90;;;;;;5070863;28;20099;-74
2024/03/31 03:12:34;;;;;;;74.32;30.70;;;11.20;99.90;;;;;;5069691;28;20013;-74
2024/03/31 03:15:03;;;;;;;76.80;30.50;;;11.20;99.90;;;;;;5069683;28;20070;-74
2024/03/31 03:17:29;;;;;;;64.28;28.95;;;11.10;99.90;;;;;;5069867;28;20020;-75
2024/03/31 03:19:55;;;;;;;52.03;27.58;;;11.10;99.90;;;;;;5069034;28;20027;-74
2024/03/31 03:22:20;;;;;;;52.65;27.77;;;11.10;99.90;;;;;;5069591;28;20020;-74
2024/03/31 03:24:46;;;;;;;51.85;26.10;;;11.10;99.90;;;;;;5069497;28;20021;-74
2024/03/31 03:27:12;;;;;;;56.60;28.40;;;11.10;99.90;;;;;;5071069;28;20025;-75
2024/03/31 03:29:37;;;;;;;64.47;28.27;;;11.10;99.90;;;;;;5069353;28;20032;-74
2024/03/31 03:32:06;;;;;;;54.88;26.40;;;11.10;99.90;;;;;;5068665;28;20119;-74
2024/03/31 03:34:32;;;;;;;68.40;29.27;;;11.00;99.90;;;;;;5069929;28;20538;-74
2024/03/31 03:36:57;;;;;;;65.30;28.70;;;11.00;99.90;;;;;;5068746;28;20107;-74
2024/03/31 03:39:26;;;;;;;64.63;29.75;;;11.00;99.90;;;;;;5057078;28;20024;-75
2024/03/31 03:41:52;;;;;;;72.35;30.90;;;11.00;99.90;;;;;;5067162;28;20016;-74
2024/03/31 03:44:18;;;;;;;72.05;30.80;;;10.90;99.90;;;;;;5055816;28;20367;-75
2024/03/31 03:46:46;;;;;;;62.13;28.08;;;10.90;99.90;;;;;;5066065;28;20012;-74
2024/03/31 03:49:12;;;;;;;68.35;28.00;;;11.00;99.90;;;;;;5068772;28;20028;-75
2024/03/31 03:51:38;;;;;;;71.70;30.00;;;11.00;99.90;;;;;;5068733;28;20032;-74
2024/03/31 03:54:04;;;;;;;59.83;30.55;;;10.90;99.90;;;;;;5068174;28;20025;-74
2024/03/31 03:56:30;;;;;;;73.10;31.45;;;11.00;99.90;;;;;;5068388;28;20021;-74
2024/03/31 03:58:57;;;;;;;93.05;32.08;;;11.00;99.90;;;;;;5068568;28;20035;-74
2024/03/31 04:01:23;;;;;;;83.75;32.50;;;11.00;99.90;;;;;;5068451;28;20029;-74
2024/03/31 04:03:49;;;;;;;68.63;32.58;;;10.90;99.90;;;;;;5067898;28;20454;-75
2024/03/31 04:06:14;;;;;;;73.20;32.33;;;10.90;99.90;;;;;;5068795;28;20024;-75
2024/03/31 04:08:40;;;;;;;60.58;29.65;;;10.90;99.90;;;;;;5068135;28;20024;-74
2024/03/31 04:11:06;;;;;;;66.15;31.25;;;10.90;99.90;;;;;;5069723;28;20024;-75
2024/03/31 04:13:32;;;;;;;67.82;29.60;;;10.90;99.90;;;;;;5061849;28;20032;-75
2024/03/31 04:15:59;;;;;;;64.10;30.85;;;10.80;99.90;;;;;;5064957;28;20025;-75
2024/03/31 04:18:25;;;;;;;63.03;29.63;;;10.80;99.90;;;;;;5057849;28;20104;-74
2024/03/31 04:20:50;;;;;;;57.70;27.90;;;10.80;99.90;;;;;;5064392;28;20052;-74
2024/03/31 04:23:16;;;;;;;72.20;30.80;;;10.80;99.90;;;;;;5059317;28;20413;-74
2024/03/31 04:25:41;;;;;;;63.22;30.23;;;10.70;99.90;;;;;;5067950;28;20104;-75
2024/03/31 04:28:10;;;;;;;70.47;31.77;;;10.70;99.90;;;;;;5067770;28;20351;-74
2024/03/31 04:30:40;;;;;;;61.25;30.88;;;10.70;99.90;;;;;;5069568;28;20389;-74
2024/03/31 04:33:05;;;;;;;72.90;34.10;;;10.70;99.90;;;;;;5067565;28;20232;-74
2024/03/31 04:35:36;;;;;;;61.75;32.03;;;10.70;99.90;;;;;;5069338;28;20222;-75
2024/03/31 04:38:02;;;;;;;61.42;30.58;;;10.60;99.90;;;;;;5067777;28;20043;-74
2024/03/31 04:40:28;;;;;;;71.22;32.78;;;10.70;99.90;;;;;;5068235;28;20021;-74
2024/03/31 04:42:54;;;;;;;58.40;32.63;;;10.70;99.90;;;;;;5067433;28;20023;-74
2024/03/31 04:45:20;;;;;;;62.95;31.52;;;10.60;99.90;;;;;;5069160;28;20024;-74
2024/03/31 04:47:46;;;;;;;74.03;35.28;;;10.70;99.90;;;;;;5067572;28;20016;-74
2024/03/31 04:50:11;;;;;;;83.43;34.75;;;10.60;99.90;;;;;;5068546;28;20032;-74
2024/03/31 04:52:37;;;;;;;66.53;34.22;;;10.60;99.90;;;;;;5067191;28;20019;-74
2024/03/31 04:55:03;;;;;;;79.85;33.63;;;10.60;99.90;;;;;;5057695;28;20063;-74
2024/03/31 04:57:28;;;;;;;82.82;34.80;;;10.60;99.90;;;;;;5055992;28;20083;-74
2024/03/31 04:59:54;;;;;;;74.00;35.22;;;10.60;99.90;;;;;;5065527;28;20164;-74
2024/03/31 05:02:20;;;;;;;72.78;34.83;;;10.50;99.90;;;;;;5059671;28;20056;-75
2024/03/31 05:04:46;;;;;;;72.40;34.50;;;10.50;99.90;;;;;;5067191;28;20123;-74
2024/03/31 05:07:12;;;;;;;73.13;34.65;;;10.50;99.90;;;;;;5067610;28;20052;-75
2024/03/31 05:09:38;;;;;;;58.45;33.75;;;10.60;99.90;;;;;;5053086;28;20386;-74
2024/03/31 05:12:04;;;;;;;66.47;33.53;;;10.50;99.90;;;;;;5064923;28;20020;-74
2024/03/31 05:14:29;;;;;;;70.45;32.63;;;10.50;99.90;;;;;;5066651;28;20055;-74
2024/03/31 05:16:55;;;;;;;64.93;33.47;;;10.50;99.90;;;;;;5067804;28;20028;-75
2024/03/31 05:19:21;;;;;;;59.05;30.63;;;10.50;99.90;;;;;;5064312;28;20097;-75
2024/03/31 05:21:49;;;;;;;58.30;31.98;;;10.50;99.90;;;;;;5071009;28;20020;-74
2024/03/31 05:24:18;;;;;;;78.97;35.17;;;10.50;99.90;;;;;;5070851;28;20028;-75
2024/03/31 05:26:44;;;;;;;59.07;30.63;;;10.50;99.90;;;;;;5071416;28;20043;-74
2024/03/31 05:29:15;;;;;;;60.47;30.67;;;10.50;99.90;;;;;;5070361;28;20478;-74
2024/03/31 05:31:41;;;;;;;61.72;33.67;;;10.40;99.90;;;;;;5071536;28;20359;-75
2024/03/31 05:34:07;;;;;;;66.28;32.47;;;10.40;99.90;;;;;;5070690;28;20085;-75
2024/03/31 05:36:34;;;;;;;72.82;33.58;;;10.40;99.90;;;;;;5066014;28;20017;-75
2024/03/31 05:39:00;;;;;;;73.22;35.38;;;10.40;99.90;;;;;;5069831;28;20021;-75
2024/03/31 05:41:28;;;;;;;67.60;33.63;;;10.40;99.90;;;;;;5072443;28;20473;-74
2024/03/31 05:43:57;;;;;;;62.17;32.58;;;10.30;99.90;;;;;;5073079;28;20031;-74
2024/03/31 05:46:28;;;;;;;64.00;31.38;;;10.30;99.90;;;;;;5073368;28;20020;-75
2024/03/31 05:48:53;;;;;;;82.93;39.92;;;10.30;99.90;;;;;;5073342;28;20029;-75
2024/03/31 05:51:19;;;;;;;80.63;37.75;;;10.30;99.90;;;;;;5073166;28;20450;-74
2024/03/31 05:53:45;;;;;;;66.18;37.28;;;10.30;99.90;;;;;;5070685;28;20020;-74
2024/03/31 05:56:11;;;;;;;81.15;41.85;;;10.30;99.90;;;;;;5070955;28;20066;-74
2024/03/31 05:58:37;;;;;;;79.13;44.13;;;10.40;99.90;;;;;;5070575;28;20029;-74
2024/03/31 06:01:06;;;;;;;79.28;41.15;;;10.40;99.90;;;;;;5070630;28;20115;-75
2024/03/31 06:03:35;;;;;;;68.88;38.78;;;10.40;99.90;;;;;;5061824;28;20123;-75
2024/03/31 06:06:01;;;;;;;65.50;39.28;;;10.50;99.90;;;;;;5062402;28;20025;-75
2024/03/31 06:08:27;;;;;;;71.03;39.83;;;10.50;99.90;;;;;;5064668;28;20067;-74
2024/03/31 06:10:57;;;;;;;76.10;41.92;;;10.60;99.90;;;;;;5054554;28;20021;-75
2024/03/31 06:13:23;;;;;;;68.78;39.95;;;10.60;99.90;;;;;;5062071;28;20021;-74
2024/03/31 06:15:49;;;;;;;63.92;38.20;;;10.60;99.90;;;;;;5070274;28;20048;-74
2024/03/31 06:18:15;;;;;;;72.22;40.15;;;10.60;99.90;;;;;;5070440;28;20048;-75
2024/03/31 06:20:41;;;;;;;77.55;39.92;;;10.70;99.90;;;;;;5070771;28;20050;-74
2024/03/31 06:23:06;;;;;;;81.00;42.22;;;10.70;99.90;;;;;;5056715;28;20025;-74
2024/03/31 06:25:32;;;;;;;71.60;42.70;;;10.70;99.90;;;;;;5045660;28;20033;-74
2024/03/31 06:27:58;;;;;;;75.90;43.22;;;10.70;99.90;;;;;;5062434;28;20335;-74
2024/03/31 06:30:24;;;;;;;59.95;38.75;;;10.70;99.90;;;;;;5045338;28;20024;-74
2024/03/31 06:32:50;;;;;;;70.07;40.60;;;10.80;99.90;;;;;;5047179;28;20021;-81
2024/03/31 06:35:25;;;;;;;69.30;39.92;;;10.80;99.90;;;;;;5050894;28;20087;-81
2024/03/31 06:37:51;;;;;;;72.38;41.95;;;10.80;99.90;;;;;;5070482;28;20008;-82
2024/03/31 06:40:16;;;;;;;70.63;41.13;;;10.80;99.90;;;;;;5043641;28;20134;-81
2024/03/31 06:42:45;;;;;;;75.15;42.75;;;10.90;99.90;;;;;;5046334;28;20435;-81
2024/03/31 06:45:14;;;;;;;67.15;39.00;;;10.90;99.90;;;;;;5044843;28;20029;-80
2024/03/31 06:47:39;;;;;;;58.72;39.20;;;11.00;99.90;;;;;;5047312;28;20052;-74
2024/03/31 06:50:05;;;;;;;67.35;40.97;;;11.00;99.90;;;;;;5050885;28;20064;-81
2024/03/31 06:52:31;;;;;;;64.57;39.17;;;11.00;99.90;;;;;;5039301;28;20025;-74
2024/03/31 06:55:00;;;;;;;60.67;38.45;;;11.10;99.90;;;;;;5057388;28;20080;-74
2024/03/31 06:57:31;;;;;;;71.28;39.58;;;11.10;99.90;;;;;;5043267;28;20070;-74
2024/03/31 06:59:56;;;;;;;69.78;42.92;;;11.20;99.90;;;;;;5061493;28;20197;-74
2024/03/31 07:03:03;;;;;;;74.05;43.08;;;11.30;99.90;;;;;;5051783;28;20099;-74
2024/03/31 07:05:29;;;;;;;67.13;38.80;;;11.30;99.90;;;;;;5039000;28;20048;-74
2024/03/31 07:07:57;;;;;;;71.68;41.65;;;11.30;99.90;;;;;;5047651;28;20021;-74
2024/03/31 07:10:28;;;;;;;65.80;40.78;;;11.30;99.90;;;;;;5051921;28;20039;-74
2024/03/31 07:12:54;;;;;;;66.88;41.35;;;11.40;99.90;;;;;;5042313;28;20029;-81
2024/03/31 07:15:19;;;;;;;77.43;43.47;;;11.40;99.90;;;;;;5048287;28;20029;-74
2024/03/31 07:17:49;;;;;;;74.65;42.88;;;11.40;99.90;;;;;;5046994;28;20017;-75
2024/03/31 07:20:14;;;;;;;72.97;40.88;;;11.40;99.90;;;;;;5044731;28;20505;-74
2024/03/31 07:22:43;;;;;;;84.30;47.25;;;11.50;99.90;;;;;;5043383;28;20025;-74
2024/03/31 07:25:09;;;;;;;76.70;43.75;;;11.50;99.90;;;;;;5046359;28;20025;-75
2024/03/31 07:27:38;;;;;;;65.32;40.33;;;11.50;99.90;;;;;;5041401;28;20417;-74
2024/03/31 07:30:06;;;;;;;74.80;42.45;;;11.60;99.90;;;;;;5044342;28;20121;-74
2024/03/31 07:32:32;;;;;;;77.65;46.38;;;11.70;99.90;;;;;;5043590;28;20347;-75
2024/03/31 07:35:00;;;;;;;81.63;44.28;;;11.70;99.90;;;;;;5041138;28;20067;-75
2024/03/31 07:37:26;;;;;;;71.32;43.00;;;11.70;99.90;;;;;;5045566;28;20037;-75
2024/03/31 07:39:54;;;;;;;66.03;41.38;;;11.70;99.90;;;;;;5040873;28;20064;-74
2024/03/31 07:42:23;;;;;;;79.60;43.10;;;11.80;99.90;;;;;;5049871;28;20123;-74
2024/03/31 07:44:49;;;;;;;75.88;42.88;;;11.80;99.90;;;;;;5042890;28;20021;-76
2024/03/31 07:47:18;;;;;;;80.53;44.20;;;11.80;99.90;;;;;;5048089;28;20492;-74
2024/03/31 07:49:43;;;;;;;82.40;45.67;;;11.90;99.90;;;;;;5043140;28;20085;-76
2024/03/31 07:52:12;;;;;;;75.93;43.63;;;11.90;99.90;;;;;;5050910;28;20436;-75
2024/03/31 07:54:38;;;;;;;64.88;40.83;;;11.90;99.90;;;;;;5039600;28;20066;-75
2024/03/31 07:57:06;;;;;;;69.03;42.05;;;11.90;99.90;;;;;;5044385;28;20500;-75
2024/03/31 07:59:35;;;;;;;77.00;43.85;;;11.90;99.90;;;;;;5041366;28;20029;-75
2024/03/31 08:02:04;;;;;;;72.47;44.08;;;11.80;99.90;;;;;;5043458;28;20490;-75
2024/03/31 08:04:30;;;;;;;70.80;40.90;;;11.70;99.90;;;;;;5042430;28;20107;-75
2024/03/31 08:06:58;;;;;;;70.70;42.00;;;11.70;99.90;;;;;;5045600;28;20112;-75
2024/03/31 08:09:24;;;;;;;70.15;42.70;;;11.70;99.90;;;;;;5043254;28;20032;-74
2024/03/31 08:11:53;;;;;;;73.60;42.92;;;11.70;99.90;;;;;;5041099;28;20121;-75
2024/03/31 08:14:19;;;;;;;76.03;42.47;;;11.50;99.90;;;;;;5039336;28;20108;-75
2024/03/31 08:16:47;;;;;;;69.28;43.67;;;11.50;99.90;;;;;;5043718;28;20600;-75
2024/03/31 08:19:15;;;;;;;60.25;41.95;;;11.50;99.90;;;;;;5047976;28;20021;-75
2024/03/31 08:21:44;;;;;;;60.22;40.35;;;11.50;99.90;;;;;;5047151;28;20025;-75
2024/03/31 08:24:10;;;;;;;67.55;40.83;;;11.50;99.90;;;;;;5047088;28;20025;-75
2024/03/31 08:26:39;;;;;;;60.95;39.58;;;11.60;99.90;;;;;;5052995;28;20021;-75
2024/03/31 08:29:07;;;;;;;69.63;41.47;;;11.60;99.90;;;;;;5044695;28;20022;-74
2024/03/31 08:31:33;;;;;;;62.40;39.72;;;11.60;99.90;;;;;;5044719;28;20041;-75
2024/03/31 08:34:02;;;;;;;65.38;41.53;;;11.60;99.90;;;;;;5045269;28;20056;-74
2024/03/31 08:36:27;;;;;;;74.85;43.03;;;11.50;99.90;;;;;;5049598;28;20107;-75
2024/03/31 08:38:56;;;;;;;65.90;40.90;;;11.50;99.90;;;;;;5050145;28;20195;-75
2024/03/31 08:41:40;;;;;;;68.43;42.63;;;11.50;99.90;;;;;;5047394;28;20513;-75
2024/03/31 08:44:14;;;;;;;68.82;42.67;;;11.50;99.90;;;;;;5060815;28;20037;-75
2024/03/31 08:46:40;;;;;;;72.45;42.72;;;11.50;99.90;;;;;;5045983;28;20039;-75
2024/03/31 08:49:13;;;;;;;69.57;41.83;;;11.40;99.90;;;;;;5044511;28;20045;-74
2024/03/31 08:51:40;;;;;;;67.25;41.30;;;11.40;99.90;;;;;;5041457;28;20029;-75
2024/03/31 08:54:06;;;;;;;69.85;43.38;;;11.40;99.90;;;;;;5039795;28;20507;-75
2024/03/31 08:56:32;;;;;;;69.53;43.72;;;11.40;99.90;;;;;;5043133;28;20033;-75
2024/03/31 08:59:01;;;;;;;71.22;42.58;;;11.40;99.90;;;;;;5043381;28;20180;-75
2024/03/31 09:01:28;;;;;;;70.60;40.95;;;11.40;99.90;;;;;;5048073;28;20096;-74
2024/03/31 09:03:57;;;;;;;75.18;42.45;;;11.50;99.90;;;;;;5044642;28;20025;-74
2024/03/31 09:06:25;;;;;;;64.45;39.30;;;11.50;99.90;;;;;;5050831;28;20079;-74
2024/03/31 09:09:04;;;;;;;71.32;41.22;;;11.60;99.90;;;;;;5042263;28;20052;-74
2024/03/31 09:11:31;;;;;;;78.00;44.35;;;11.90;99.90;;;;;;5046336;28;20025;-76
2024/03/31 09:13:57;;;;;;;69.57;41.97;;;12.10;99.90;;;;;;5041637;28;20091;-74
2024/03/31 09:16:26;;;;;;;87.47;45.03;;;12.60;99.90;;;;;;5044455;28;20021;-74
2024/03/31 09:18:53;;;;;;;65.75;40.45;;;13.00;99.90;;;;;;5048236;28;20031;-75
2024/03/31 09:21:22;;;;;;;72.45;41.58;;;13.60;99.90;;;;;;5068473;28;20029;-75
2024/03/31 09:23:48;;;;;;;61.05;37.53;;;14.80;99.90;;;;;;5069777;28;20048;-75
2024/03/31 09:26:16;;;;;;;55.80;35.53;;;15.60;99.90;;;;;;5063297;28;20061;-75
2024/03/31 09:28:42;;;;;;;51.53;35.40;;;16.20;99.90;;;;;;5069576;28;20036;-75
2024/03/31 09:31:07;;;;;;;44.25;32.83;;;16.60;99.90;;;;;;5071144;28;20070;-75
2024/03/31 09:33:37;;;;;;;47.45;33.58;;;17.70;99.90;;;;;;5070896;28;20017;-75
2024/03/31 09:36:08;;;;;;;48.60;32.70;;;18.30;99.90;;;;;;5070002;28;20025;-75
2024/03/31 09:38:33;;;;;;;43.08;29.63;;;19.30;99.90;;;;;;5070326;28;20111;-75
2024/03/31 09:40:59;;;;;;;46.97;29.60;;;20.30;98.50;;;;;;5070089;28;20111;-75
2024/03/31 09:43:25;;;;;;;35.92;28.23;;;20.70;96.40;;;;;;5056497;28;20062;-75
2024/03/31 09:45:51;;;;;;;45.15;30.92;;;21.60;95.20;;;;;;5067693;28;20111;-75
2024/03/31 09:48:24;;;;;;;38.78;27.30;;;22.30;92.70;;;;;;5067340;28;20166;-75
2024/03/31 09:50:53;;;;;;;38.42;26.45;;;22.60;92.30;;;;;;5058999;28;20055;-75
2024/03/31 09:53:24;;;;;;;36.85;26.63;;;23.80;89.70;;;;;;5066368;28;20025;-75
2024/03/31 09:55:52;;;;;;;38.70;25.75;;;24.50;85.90;;;;;;5067233;28;20035;-76
2024/03/31 09:58:20;;;;;;;31.35;24.25;;;24.20;86.20;;;;;;5067177;28;20024;-76
2024/03/31 10:00:47;;;;;;;36.78;26.23;;;24.70;84.00;;;;;;5067208;28;20021;-76
2024/03/31 10:03:15;;;;;;;35.50;24.98;;;24.90;81.00;;;;;;5067638;28;20029;-76
2024/03/31 10:05:43;;;;;;;38.35;25.23;;;24.50;81.00;;;;;;5056188;28;20027;-76
2024/03/31 10:08:09;;;;;;;32.70;23.27;;;24.20;81.10;;;;;;5064446;28;20048;-76
2024/03/31 10:10:38;;;;;;;35.28;27.00;;;24.50;82.00;;;;;;5071374;28;20021;-76
2024/03/31 10:13:05;;;;;;;32.50;24.70;;;24.50;82.40;;;;;;5071634;28;20028;-76
2024/03/31 10:15:34;;;;;;;34.05;25.00;;;25.00;82.10;;;;;;5071659;28;20542;-76
2024/03/31 10:18:05;;;;;;;31.10;23.65;;;25.30;79.00;;;;;;5071828;28;20032;-76
2024/03/31 10:20:31;;;;;;;31.95;23.30;;;25.70;79.40;;;;;;5071704;28;20466;-76
2024/03/31 10:22:58;;;;;;;31.55;23.42;;;26.10;77.50;;;;;;5064852;28;20025;-76
2024/03/31 10:25:24;;;;;;;27.65;22.50;;;26.00;76.90;;;;;;5068903;28;20027;-76
2024/03/31 10:27:52;;;;;;;36.40;22.90;;;26.40;76.20;;;;;;5070079;28;20094;-76
2024/03/31 10:30:18;;;;;;;27.52;22.73;;;26.30;76.00;;;;;;5071686;28;20112;-76
2024/03/31 10:32:48;;;;;;;27.08;19.40;;;26.80;73.90;;;;;;5071441;28;20030;-76
2024/03/31 10:35:14;;;;;;;;;;;27.30;73.70;;;;;;5072108;28;20024;-76
2024/03/31 10:37:43;;;;;;;31.35;20.27;;;27.80;71.00;;;;;;5071475;28;19912;-76
2024/03/31 10:40:12;;;;;;;21.77;15.90;;;27.80;71.40;;;;;;5071413;28;20477;-76
2024/03/31 10:42:37;;;;;;;22.77;16.55;;;28.10;69.00;;;;;;5071236;28;20078;-76
2024/03/31 10:45:07;;;;;;;21.08;15.90;;;28.20;67.50;;;;;;5069888;28;20024;-76
2024/03/31 10:47:35;;;;;;;21.52;14.90;;;28.20;68.50;;;;;;5069127;28;20020;-76
2024/03/31 10:50:03;;;;;;;20.55;13.55;;;28.50;66.10;;;;;;5064584;28;20081;-77
2024/03/31 10:52:31;;;;;;;15.43;13.05;;;28.40;65.10;;;;;;5071469;28;20071;-75
2024/03/31 10:54:58;;;;;;;17.67;13.45;;;28.40;66.50;;;;;;5069190;28;20024;-75
2024/03/31 10:57:57;;;;;;;22.00;15.30;;;28.40;66.40;;;;;;5069729;28;20031;-76
2024/03/31 11:00:27;;;;;;;20.67;14.93;;;28.40;66.60;;;;;;5071022;28;20016;-75
2024/03/31 11:02:53;;;;;;;22.65;15.55;;;28.50;66.90;;;;;;5054650;28;20094;-75
2024/03/31 11:05:22;;;;;;;23.50;15.18;;;28.70;64.50;;;;;;5066478;28;20090;-75
2024/03/31 11:07:51;;;;;;;16.60;13.25;;;28.70;66.40;;;;;;5069046;28;20016;-75
2024/03/31 11:10:19;;;;;;;;;;;28.40;66.60;;;;;;5071249;28;20099;-76
2024/03/31 11:12:46;;;;;;;18.42;13.25;;;28.50;66.20;;;;;;5055030;28;19904;-76
2024/03/31 11:15:14;;;;;;;20.83;14.60;;;28.60;65.70;;;;;;5069190;28;20108;-75
2024/03/31 11:17:42;;;;;;;18.83;14.82;;;28.50;67.00;;;;;;5070789;28;20185;-76
2024/03/31 11:20:10;;;;;;;21.17;14.75;;;28.40;66.70;;;;;;5069238;28;20039;-76
2024/03/31 11:22:37;;;;;;;21.52;15.75;;;28.20;65.80;;;;;;5069049;28;20027;-76
2024/03/31 11:25:06;;;;;;;21.77;14.73;;;28.00;66.50;;;;;;5068928;28;20024;-76
2024/03/31 11:27:32;;;;;;;18.58;14.43;;;28.10;67.70;;;;;;5068739;28;20471;-76
2024/03/31 11:30:00;;;;;;;19.02;13.35;;;27.60;66.10;;;;;;5060685;28;20069;-76
2024/03/31 11:32:26;;;;;;;20.27;13.52;;;27.20;68.20;;;;;;5049994;28;20047;-76
2024/03/31 11:34:53;;;;;;;20.88;14.68;;;27.60;68.10;;;;;;5069577;28;20025;-76
2024/03/31 11:37:20;;;;;;;22.85;14.85;;;27.90;65.00;;;;;;5061042;28;20023;-76
2024/03/31 11:39:45;;;;;;;18.92;14.48;;;28.10;66.70;;;;;;5069170;28;20028;-75
2024/03/31 11:42:12;;;;;;;22.05;14.75;;;28.00;66.90;;;;;;5070580;28;20090;-76
2024/03/31 11:44:39;;;;;;;20.35;14.25;;;27.70;66.90;;;;;;5058936;28;20026;-76
2024/03/31 11:47:05;;;;;;;19.58;13.05;;;27.80;66.70;;;;;;5041203;28;20025;-76
2024/03/31 11:49:33;;;;;;;18.73;12.85;;;27.80;67.40;;;;;;5038748;28;20120;-76
2024/03/31 11:51:59;;;;;;;21.55;15.93;;;28.10;65.70;;;;;;5037459;28;20029;-76
2024/03/31 11:54:26;;;;;;;18.08;12.98;;;27.70;65.10;;;;;;5043812;28;20142;-75
2024/03/31 11:56:53;;;;;;;21.55;15.70;;;28.10;65.70;;;;;;5041801;28;20035;-76
2024/03/31 11:59:21;;;;;;;19.80;13.93;;;28.00;65.50;;;;;;5057098;28;20135;-73
2024/03/31 12:01:56;;;;;;;18.60;13.68;;;27.80;65.40;;;;;;5040512;28;20044;-74
2024/03/31 12:04:22;;;;;;;20.23;14.35;;;27.50;64.70;;;;;;5057843;28;20057;-76
2024/03/31 12:06:48;;;;;;;23.05;13.73;;;27.20;66.80;;;;;;5047553;28;20054;-74
2024/03/31 12:09:14;;;;;;;21.90;14.48;;;26.80;66.70;;;;;;5044281;28;20021;-74
2024/03/31 12:11:42;;;;;;;22.20;12.27;;;26.50;67.60;;;;;;5041886;28;20017;-74
2024/03/31 12:14:08;;;;;;;17.17;11.35;;;25.50;67.00;;;;;;5044816;28;20021;-74
2024/03/31 12:16:34;;;;;;;17.48;11.45;;;25.50;68.00;;;;;;5045581;28;20017;-73
2024/03/31 12:18:59;;;;;;;20.50;12.77;;;25.30;67.60;;;;;;5047972;28;20048;-73
2024/03/31 12:21:27;;;;;;;18.67;12.52;;;24.90;68.90;;;;;;5046984;28;20068;-74
2024/03/31 12:23:55;;;;;;;27.50;11.95;;;24.70;69.60;;;;;;5048689;28;20021;-74
2024/03/31 12:26:22;;;;;;;16.90;12.35;;;24.40;71.00;;;;;;5070169;28;20677;-75
2024/03/31 12:28:48;;;;;;;18.60;12.63;;;23.40;70.90;;;;;;5053150;28;20032;-75